createdAt,value
2018-12-08T00:01:36.450Z,11.60
2018-12-08T00:06:39.637Z,11.90
2018-12-08T00:11:42.855Z,11.80
2018-12-08T00:16:46.963Z,11.70
2018-12-08T00:21:50.187Z,11.60
2018-12-08T00:26:53.482Z,11.60
2018-12-08T00:31:56.698Z,11.60
2018-12-08T00:36:59.892Z,11.70
2018-12-08T00:42:03.248Z,11.50
2018-12-08T00:47:06.529Z,11.50
2018-12-08T00:52:09.805Z,11.50
2018-12-08T00:57:12.990Z,11.50
2018-12-08T01:02:16.190Z,11.70
2018-12-08T01:07:19.454Z,11.60
2018-12-08T01:12:22.731Z,11.50
2018-12-08T01:17:26.006Z,11.50
2018-12-08T01:22:29.215Z,11.60
2018-12-08T01:27:32.430Z,11.20
2018-12-08T01:32:35.623Z,11.40
2018-12-08T01:37:38.908Z,11.30
2018-12-08T01:42:45.590Z,11.20
2018-12-08T01:47:48.790Z,11.50
2018-12-08T01:52:52.105Z,11.60
2018-12-08T01:57:55.411Z,11.40
2018-12-08T02:02:58.654Z,11.20
2018-12-08T02:08:02.317Z,11.60
2018-12-08T02:13:06.214Z,11.40
2018-12-08T02:18:09.406Z,11.40
2018-12-08T02:23:12.680Z,11.30
2018-12-08T02:28:16.047Z,11.50
2018-12-08T02:33:19.285Z,11.10
2018-12-08T02:38:22.594Z,11.30
2018-12-08T02:43:25.908Z,11.10
2018-12-08T02:48:29.215Z,11.30
2018-12-08T02:53:32.418Z,11.30
2018-12-08T02:58:35.703Z,11.10
2018-12-08T03:03:39.097Z,11.10
2018-12-08T03:08:42.377Z,11.20
2018-12-08T03:13:45.689Z,11.30
2018-12-08T03:18:48.910Z,11.20
2018-12-08T03:23:52.133Z,11.20
2018-12-08T03:28:55.453Z,11.20
2018-12-08T03:33:58.721Z,11.10
2018-12-08T03:39:02.446Z,11.20
2018-12-08T03:44:05.649Z,11.20
2018-12-08T03:49:08.928Z,10.80
2018-12-08T03:54:12.118Z,11.00
2018-12-08T03:59:15.996Z,11.10
2018-12-08T04:04:19.170Z,11.20
2018-12-08T04:09:22.456Z,11.20
2018-12-08T04:14:25.946Z,10.90
2018-12-08T04:19:29.150Z,11.20
2018-12-08T04:24:32.452Z,11.10
2018-12-08T04:29:35.665Z,11.20
2018-12-08T04:34:38.968Z,11.10
2018-12-08T04:39:42.247Z,11.20
2018-12-08T04:44:45.934Z,11.10
2018-12-08T04:49:49.200Z,11.10
2018-12-08T04:54:52.569Z,11.20
2018-12-08T04:59:55.786Z,11.20
2018-12-08T05:04:59.021Z,11.20
2018-12-08T05:10:02.230Z,11.30
2018-12-08T05:15:05.867Z,11.20
2018-12-08T05:20:09.262Z,11.10
2018-12-08T05:25:12.467Z,11.10
2018-12-08T05:30:15.885Z,11.20
2018-12-08T05:35:19.172Z,11.20
2018-12-08T05:40:23.362Z,11.40
2018-12-08T05:45:26.603Z,11.20
2018-12-08T05:50:29.796Z,11.20
2018-12-08T05:55:32.990Z,11.20
2018-12-08T06:00:37.374Z,11.30
2018-12-08T06:05:41.609Z,11.30
2018-12-08T06:10:44.802Z,11.20
2018-12-08T06:15:48.018Z,11.30
2018-12-08T06:20:51.576Z,11.30
2018-12-08T06:25:56.082Z,11.20
2018-12-08T06:30:59.309Z,11.30
2018-12-08T06:36:02.622Z,11.10
2018-12-08T06:41:05.926Z,11.30
2018-12-08T06:46:09.142Z,11.10
2018-12-08T06:51:12.353Z,11.20
2018-12-08T06:56:15.570Z,10.80
2018-12-08T07:01:18.775Z,10.90
2018-12-08T07:06:21.982Z,10.80
2018-12-08T07:11:25.173Z,11.20
2018-12-08T07:16:28.476Z,10.90
2018-12-08T07:21:31.857Z,11.20
2018-12-08T07:26:35.057Z,10.90
2018-12-08T07:31:38.246Z,11.00
2018-12-08T07:36:41.638Z,10.80
2018-12-08T07:41:44.974Z,10.90
2018-12-08T07:46:48.167Z,11.10
2018-12-08T07:51:51.582Z,11.10
2018-12-08T07:56:54.782Z,11.00
2018-12-08T08:01:57.978Z,11.00
2018-12-08T08:07:01.194Z,11.20
2018-12-08T08:12:04.588Z,11.00
2018-12-08T08:17:08.538Z,11.20
2018-12-08T08:22:11.933Z,10.80
2018-12-08T08:27:15.122Z,10.80
2018-12-08T08:37:46.998Z,10.90
2018-12-08T08:42:50.376Z,10.90
2018-12-08T08:47:53.577Z,11.00
2018-12-08T08:52:56.768Z,11.00
2018-12-08T08:58:00.078Z,10.90
2018-12-08T09:03:03.318Z,11.00
2018-12-08T09:08:06.508Z,10.80
2018-12-08T09:13:10.166Z,10.80
2018-12-08T09:18:13.455Z,10.80
2018-12-08T09:23:16.750Z,10.80
2018-12-08T09:28:19.966Z,10.80
2018-12-08T09:33:23.173Z,10.80
2018-12-08T09:38:26.381Z,11.00
2018-12-08T09:43:29.602Z,10.80
2018-12-08T09:48:32.840Z,10.90
2018-12-08T09:53:36.075Z,10.90
2018-12-08T09:58:39.387Z,10.90
2018-12-08T10:03:42.569Z,10.90
2018-12-08T10:08:46.109Z,10.80
2018-12-08T10:13:49.352Z,10.90
2018-12-08T10:18:52.581Z,10.60
2018-12-08T10:23:55.874Z,10.40
2018-12-08T10:28:59.172Z,10.50
2018-12-08T10:34:02.402Z,10.40
2018-12-08T10:39:08.062Z,10.60
2018-12-08T10:44:11.286Z,10.60
2018-12-08T10:49:14.637Z,10.50
2018-12-08T10:54:17.990Z,10.70
2018-12-08T10:59:21.206Z,10.60
2018-12-08T11:04:24.475Z,10.60
2018-12-08T11:09:27.905Z,10.40
2018-12-08T11:14:31.230Z,10.60
2018-12-08T11:19:35.425Z,10.70
2018-12-08T11:24:38.806Z,10.80
2018-12-08T11:29:42.014Z,10.70
2018-12-08T11:34:45.214Z,10.80
2018-12-08T11:39:48.421Z,10.90
2018-12-08T11:44:51.953Z,10.90
2018-12-08T11:49:56.204Z,11.00
2018-12-08T11:54:59.406Z,11.40
2018-12-08T12:00:02.629Z,11.60
2018-12-08T12:05:08.329Z,11.20
2018-12-08T12:10:11.738Z,11.20
2018-12-08T12:15:14.937Z,11.50
2018-12-08T12:20:18.146Z,11.20
2018-12-08T12:25:21.922Z,11.90
2018-12-08T12:30:25.374Z,11.50
2018-12-08T12:35:28.601Z,11.50
2018-12-08T12:40:31.850Z,11.40
2018-12-08T12:45:35.120Z,11.30
2018-12-08T12:50:38.441Z,11.20
2018-12-08T12:55:41.650Z,11.20
2018-12-08T13:00:45.003Z,11.10
2018-12-08T13:05:48.215Z,11.20
2018-12-08T13:10:51.430Z,11.10
2018-12-08T13:15:54.644Z,11.20
2018-12-08T13:20:57.938Z,11.30
2018-12-08T13:26:01.250Z,11.30
2018-12-08T13:31:04.642Z,11.00
2018-12-08T13:36:09.717Z,11.20
2018-12-08T13:41:12.921Z,11.10
2018-12-08T13:46:16.145Z,11.20
2018-12-08T13:51:19.766Z,11.10
2018-12-08T13:56:22.978Z,11.10
2018-12-08T14:01:26.358Z,11.30
2018-12-08T14:06:31.743Z,11.30
2018-12-08T14:11:35.982Z,11.10
2018-12-08T14:16:39.494Z,11.20
2018-12-08T14:21:42.734Z,11.20
2018-12-08T14:26:45.975Z,11.10
2018-12-08T14:31:49.571Z,11.40
2018-12-08T14:36:52.782Z,11.20
2018-12-08T14:41:57.018Z,11.10
2018-12-08T14:47:00.234Z,11.50
2018-12-08T14:52:03.539Z,13.30
2018-12-08T14:57:06.838Z,12.60
2018-12-08T15:02:10.075Z,13.50
2018-12-08T15:07:13.271Z,12.90
2018-12-08T15:12:16.582Z,12.10
2018-12-08T15:17:22.785Z,11.90
2018-12-08T15:22:26.007Z,11.90
2018-12-08T15:27:29.226Z,11.60
2018-12-08T15:32:32.438Z,11.60
2018-12-08T15:37:35.990Z,11.50
2018-12-08T15:42:39.693Z,11.60
2018-12-08T15:47:42.939Z,11.50
2018-12-08T15:52:46.238Z,11.50
2018-12-08T15:57:50.668Z,11.50
2018-12-08T16:02:53.876Z,11.20
2018-12-08T16:07:57.078Z,11.40
2018-12-08T16:13:00.294Z,11.20
2018-12-08T16:18:03.510Z,11.30
2018-12-08T16:23:06.830Z,11.50
2018-12-08T16:28:10.037Z,11.20
2018-12-08T16:33:13.231Z,11.10
2018-12-08T16:38:16.454Z,11.20
2018-12-08T16:43:19.681Z,11.20
2018-12-08T16:48:23.853Z,11.20
2018-12-08T16:53:27.065Z,11.20
2018-12-08T16:58:30.269Z,11.30
2018-12-08T17:03:33.586Z,11.20
2018-12-08T17:08:36.909Z,11.20
2018-12-08T17:13:41.621Z,11.30
2018-12-08T17:18:44.934Z,11.20
2018-12-08T17:23:48.141Z,11.30
2018-12-08T17:28:51.417Z,11.20
2018-12-08T17:33:54.620Z,11.40
2018-12-08T17:38:57.818Z,11.30
2018-12-08T17:44:01.017Z,11.30
2018-12-08T17:49:04.305Z,11.10
2018-12-08T17:54:07.805Z,11.20
2018-12-08T17:59:11.094Z,11.20
2018-12-08T18:04:14.482Z,11.20
2018-12-08T18:09:17.673Z,11.20
2018-12-08T18:14:20.862Z,11.30
2018-12-08T18:19:24.227Z,11.20
2018-12-08T18:24:27.497Z,11.10
2018-12-08T18:29:30.818Z,11.20
2018-12-08T18:34:34.223Z,11.10
2018-12-08T18:39:37.500Z,11.20
2018-12-08T18:44:40.710Z,11.10
2018-12-08T18:49:43.930Z,11.10
2018-12-08T18:54:47.153Z,11.20
2018-12-08T18:59:50.434Z,11.20
2018-12-08T19:04:53.753Z,11.20
2018-12-08T19:09:57.046Z,11.30
2018-12-08T19:15:00.246Z,11.20
2018-12-08T19:20:03.634Z,11.20
2018-12-08T19:25:07.410Z,11.20
2018-12-08T19:30:10.909Z,11.20
2018-12-08T19:35:15.638Z,11.20
2018-12-08T19:40:18.843Z,11.20
2018-12-08T19:45:22.158Z,11.30
2018-12-08T19:50:25.362Z,11.20
2018-12-08T19:55:28.570Z,11.30
2018-12-08T20:00:31.784Z,11.20
2018-12-08T20:05:35.106Z,11.10
2018-12-08T20:10:39.510Z,11.20
2018-12-08T20:15:42.822Z,11.20
2018-12-08T20:20:46.035Z,11.30
2018-12-08T20:25:49.842Z,11.30
2018-12-08T20:30:53.044Z,11.20
2018-12-08T20:35:56.246Z,11.50
2018-12-08T20:41:00.754Z,11.20
2018-12-08T20:46:04.625Z,11.20
2018-12-08T20:51:07.929Z,11.30
2018-12-08T20:56:11.237Z,11.10
2018-12-08T21:01:14.461Z,11.20
2018-12-08T21:06:17.649Z,11.50
2018-12-08T21:11:20.860Z,11.20
2018-12-08T21:16:24.075Z,11.40
2018-12-08T21:21:27.371Z,11.60
2018-12-08T21:26:30.847Z,11.20
2018-12-08T21:31:34.050Z,11.50
2018-12-08T21:36:37.638Z,11.50
2018-12-08T21:41:40.862Z,11.40
2018-12-08T21:46:44.062Z,11.50
2018-12-08T21:51:47.283Z,11.60
2018-12-08T21:56:50.505Z,11.60
2018-12-08T22:01:53.905Z,11.70
2018-12-08T22:06:57.162Z,11.50
2018-12-08T22:12:00.374Z,11.70
2018-12-08T22:17:03.601Z,11.30
2018-12-08T22:22:06.891Z,11.60
2018-12-08T22:27:10.093Z,11.50
2018-12-08T22:32:13.309Z,11.20
2018-12-08T22:37:17.061Z,11.20
2018-12-08T22:42:20.277Z,11.30
2018-12-08T22:47:23.490Z,11.20
2018-12-08T22:52:27.086Z,11.30
2018-12-08T22:57:30.305Z,11.50
2018-12-08T23:02:33.610Z,11.50
2018-12-08T23:07:36.914Z,11.20
2018-12-08T23:12:40.102Z,11.30
2018-12-08T23:17:43.539Z,11.40
2018-12-08T23:22:47.033Z,11.60
2018-12-08T23:27:50.301Z,11.40
2018-12-08T23:32:53.589Z,11.60
2018-12-08T23:37:56.823Z,11.20
2018-12-08T23:43:00.019Z,11.20
2018-12-08T23:48:03.345Z,11.20
2018-12-08T23:53:06.566Z,11.10
2018-12-08T23:58:09.797Z,11.20
